NQU weather

Reyes Murillo Airport
Nuquí, Chocó Department, Colombia

Public forecast

Using degrees Celsius for public forecast. Weather courtesy of forecast.io.

METAR (pilot weather report)

Report is more than 6 hours old.

Closest report is José Celestino Mutis Airport, 31.2 nm (57.7 km) NNW. Retrieved 2019/02/13 12:00 UTC (3 days ago):

SKBS 131200Z /////KT 5000 MIFG OVC030 XX/XX A//// RMK MIFG/S/N

TAF (pilot weather forecast)

Forecast is more than 12 hours old.

Closest forecast is Matecaña International Airport, 106.3 nm (196.9 km) ESE. Retrieved 2019/02/08 06:12 UTC (8 days ago):

TAF SKPE 080500Z 0806/0906 VRB02KT 5000 BCFG SCT010 SCT070 TEMPO 0809/0813 2000 BCFG BECMG 0813/0815 27007KT 9999 NSW SCT017 SCT080 TEMPO 0821/0824 7000 DZR SCT015CB TX28/0818Z TN19/0811Z